Aérodrome :
LOGIN :

S'inscrire | Disclaimer

   EN    FR    IT 

 










Légende :    VFR   VFR Marginal   IFR   IFR Intensif   IFR Très Intensif
Visi : 
Plafond : 
>= 8 km
>= 3000ft
5 à 8 km
1000 à 3000 ft
1500m à 5 km
500 à 1000 ft
800 à 1500m
200 à 500 ft
< 800m
< 200 ft
Symboles :   Orages  Brouillard  Fortes neiges  Fortes précipitations  Vent > 20 kt
SIGMETs :   Divers  Orages  Givrage  Turbulence  Onde Orograph.  Cendres Volcan.






- Altitude de l'aérodrome : 287 ft


LFRL - Lanveoc Poulmic

DERNIER METAR :
  • 090200Z AUTO 19019KT 4200 RA BR OVC004/// ///TCU 12/11 Q1003 TEMPO 0500 FG VV/// BECMG 20020G35KT

METARs EXPIRÉS :
  • 090130Z AUTO 19018KT 3900 RA BR OVC005/// //////TCU 12/11 Q1003 TEMPO 0500 FG VV/// BECMG 20020G35KT
  • 090100Z AUTO 19017KT 5000 RA BR OVC004/// //////TCU 11/11 Q1005 TEMPO 1200 BR BKN002 BECMG 20020G35KT
  • 090030Z AUTO 20015KT 3800 -RA BR BKN004/// OVC008/// //////TCU 12/11 Q1006 TEMPO 1200 BR BKN002 BECMG 20020G35KT
  • 090000Z AUTO 21016KT 8000 -RA OVC006 12/11 Q1007 TEMPO 1200 BR BKN002 BECMG 20020G35KT
  • 082330Z AUTO 21018KT 7000 -RA BKN010 BKN017 OVC026 12/11 Q1007 TEMPO 1200 BR BKN002 BECMG 20020G35KT
  • 082300Z AUTO 21016KT 9999 -DZ FEW020/// BKN028/// OVC036/// //////TCU 12/10 Q1008 TEMPO 1200 BR BKN002 BECMG 20020G35KT
  • 082230Z AUTO 21016KT 9999 FEW023/// BKN038/// OVC046/// ///TCU 12/10 Q1009 TEMPO 1200 BR BKN002 BECMG 20020G35KT
  • 082200Z AUTO 21015KT 8000 -RA BKN014 BKN020 BKN031 12/10 Q1009 BECMG 20020G35KT
  • 082130Z AUTO 21014KT 9999 -DZ BKN018 BKN027 BKN037 12/10 Q1010 BECMG 20020G35KT BKN010
  • 082100Z AUTO 21013KT 9999 SCT020 SCT030 OVC068 12/09 Q1010 BECMG 20020G35KT BKN010

TAF TAF LFRL
Valide du 08 à 12h jusqu'au 09 à 12h UTC


081100Z 0812/0912 25020KT 9999 NSW SCT023TCU BKN030
BECMG 0820/0822 20020G35KT BKN010
BECMG 0900/0903 3000 RA OVC006
PROB40
TEMPO 0900/0906 1200 BR BKN002
PROB30
TEMPO 0903/0909 0500 FG VV///
BECMG 0909/0911 9999 NSW BKN020



MET'MAP, la Météo Aéronautique d'un coup d'oeil ! - Copyright ORBIFLY Décembre 2007 - Disclaimer

ORBIFLY MET'MAP TEAM :

Programmation & Développement : Alexandra Zaïnal
Sur une idée originale de : Baudouin d'Aumeries
Soutien technique & logistique : Manuel Goepfert
Assistance : Marc-Olivier Méhu




SOURCES & CREDITS :

   NOAA